Metar z połowy godziny Komunikat METAR ze strony awiacja.imgw.pl Metar G30 EPMO METAR EPMO 172030Z VRB01KT CAVOK 09/06 Q1021 =